Jachal, Argentina
Current Conditions -  °F | °C
As of 5:00 PM on Monday 24 Nov 2014 (Local Time) from SCSE Reporting Station
Clear Clear  
Wind Chill: 66°   Ceiling: Unl
Heat Index: 66°   Visibility: 6mi
Dew Point: 54°   Wind: 14mph
Humidity: 64%   Direction: 290°WNW
Pressure: 29.91"   Gusts: NA
Location:  30.25°S, 68.75°W
Report Text: SCSE 242000Z 29012KT CAVOK 19/12 Q1013
Loading
Personal Weather Stations






























Interactive Weather Map New forecast layout! Learn more

10-Day Weather Forecast

Advertisements
Track Severe Weather on mobile